sensor_id;sensor_type;location;lat;lon;timestamp;P1;durP1;ratioP1;P2;durP2;ratioP2
82304;SDS011;71914;47.382;8.168;2024-03-17T00:00:22;4.25;;;3.45;;
82304;SDS011;71914;47.382;8.168;2024-03-17T00:02:48;3.97;;;2.65;;
82304;SDS011;71914;47.382;8.168;2024-03-17T00:05:13;6.43;;;3.75;;
82304;SDS011;71914;47.382;8.168;2024-03-17T00:07:39;5.82;;;3.47;;
82304;SDS011;71914;47.382;8.168;2024-03-17T00:10:05;4.40;;;3.00;;
82304;SDS011;71914;47.382;8.168;2024-03-17T00:12:35;6.40;;;3.25;;
82304;SDS011;71914;47.382;8.168;2024-03-17T00:15:00;4.43;;;2.58;;
82304;SDS011;71914;47.382;8.168;2024-03-17T00:17:26;3.13;;;2.50;;
82304;SDS011;71914;47.382;8.168;2024-03-17T00:19:51;3.28;;;2.33;;
82304;SDS011;71914;47.382;8.168;2024-03-17T00:22:17;4.18;;;2.75;;
82304;SDS011;71914;47.382;8.168;2024-03-17T00:24:42;5.97;;;2.85;;
82304;SDS011;71914;47.382;8.168;2024-03-17T00:27:08;6.60;;;2.80;;
82304;SDS011;71914;47.382;8.168;2024-03-17T00:29:35;6.03;;;3.13;;
82304;SDS011;71914;47.382;8.168;2024-03-17T00:32:00;3.22;;;2.47;;
82304;SDS011;71914;47.382;8.168;2024-03-17T00:34:25;3.13;;;2.30;;
82304;SDS011;71914;47.382;8.168;2024-03-17T00:36:51;5.55;;;2.83;;
82304;SDS011;71914;47.382;8.168;2024-03-17T00:39:16;3.33;;;2.22;;
82304;SDS011;71914;47.382;8.168;2024-03-17T00:41:43;5.93;;;2.83;;
82304;SDS011;71914;47.382;8.168;2024-03-17T00:44:09;4.93;;;2.20;;
82304;SDS011;71914;47.382;8.168;2024-03-17T00:46:34;4.60;;;2.22;;
82304;SDS011;71914;47.382;8.168;2024-03-17T00:48:59;4.10;;;2.20;;
82304;SDS011;71914;47.382;8.168;2024-03-17T00:51:25;3.85;;;2.50;;
82304;SDS011;71914;47.382;8.168;2024-03-17T00:53:51;7.40;;;3.78;;
82304;SDS011;71914;47.382;8.168;2024-03-17T00:56:16;6.10;;;3.70;;
82304;SDS011;71914;47.382;8.168;2024-03-17T00:58:41;4.80;;;3.22;;
82304;SDS011;71914;47.382;8.168;2024-03-17T01:01:09;4.70;;;3.03;;
82304;SDS011;71914;47.382;8.168;2024-03-17T01:03:35;5.03;;;3.45;;
82304;SDS011;71914;47.382;8.168;2024-03-17T01:06:02;5.93;;;3.85;;
82304;SDS011;71914;47.382;8.168;2024-03-17T01:08:29;4.93;;;3.50;;
82304;SDS011;71914;47.382;8.168;2024-03-17T01:10:55;4.75;;;3.17;;
82304;SDS011;71914;47.382;8.168;2024-03-17T01:13:20;4.30;;;3.20;;
82304;SDS011;71914;47.382;8.168;2024-03-17T01:15:50;4.15;;;3.05;;
82304;SDS011;71914;47.382;8.168;2024-03-17T01:18:17;4.45;;;2.33;;
82304;SDS011;71914;47.382;8.168;2024-03-17T01:20:42;4.93;;;2.60;;
82304;SDS011;71914;47.382;8.168;2024-03-17T01:23:07;4.15;;;2.75;;
82304;SDS011;71914;47.382;8.168;2024-03-17T01:25:33;6.10;;;2.45;;
82304;SDS011;71914;47.382;8.168;2024-03-17T01:28:05;3.65;;;2.15;;
82304;SDS011;71914;47.382;8.168;2024-03-17T01:30:31;3.78;;;2.65;;
82304;SDS011;71914;47.382;8.168;2024-03-17T01:32:57;4.57;;;2.40;;
82304;SDS011;71914;47.382;8.168;2024-03-17T01:35:24;4.50;;;2.60;;
82304;SDS011;71914;47.382;8.168;2024-03-17T01:37:50;7.55;;;2.90;;
82304;SDS011;71914;47.382;8.168;2024-03-17T01:40:15;4.78;;;3.35;;
82304;SDS011;71914;47.382;8.168;2024-03-17T01:42:41;5.18;;;3.33;;
82304;SDS011;71914;47.382;8.168;2024-03-17T01:45:49;3.72;;;2.75;;
82304;SDS011;71914;47.382;8.168;2024-03-17T01:47:57;8.60;;;3.72;;
82304;SDS011;71914;47.382;8.168;2024-03-17T01:50:35;5.45;;;2.50;;
82304;SDS011;71914;47.382;8.168;2024-03-17T01:53:02;3.55;;;2.35;;
82304;SDS011;71914;47.382;8.168;2024-03-17T01:55:32;4.13;;;2.53;;
82304;SDS011;71914;47.382;8.168;2024-03-17T01:58:00;8.02;;;3.25;;
82304;SDS011;71914;47.382;8.168;2024-03-17T02:00:27;3.78;;;2.70;;
82304;SDS011;71914;47.382;8.168;2024-03-17T02:02:53;3.55;;;2.10;;
82304;SDS011;71914;47.382;8.168;2024-03-17T02:05:19;2.80;;;2.20;;
82304;SDS011;71914;47.382;8.168;2024-03-17T02:07:44;4.47;;;2.72;;
82304;SDS011;71914;47.382;8.168;2024-03-17T02:10:10;6.50;;;2.28;;
82304;SDS011;71914;47.382;8.168;2024-03-17T02:12:35;3.67;;;2.30;;
82304;SDS011;71914;47.382;8.168;2024-03-17T02:15:01;4.20;;;2.50;;
82304;SDS011;71914;47.382;8.168;2024-03-17T02:17:30;3.53;;;2.25;;
82304;SDS011;71914;47.382;8.168;2024-03-17T02:19:56;3.90;;;2.50;;
82304;SDS011;71914;47.382;8.168;2024-03-17T02:22:22;3.63;;;2.20;;
82304;SDS011;71914;47.382;8.168;2024-03-17T02:24:47;2.42;;;2.00;;
82304;SDS011;71914;47.382;8.168;2024-03-17T02:27:13;5.28;;;2.35;;
82304;SDS011;71914;47.382;8.168;2024-03-17T02:29:39;3.97;;;2.45;;
82304;SDS011;71914;47.382;8.168;2024-03-17T02:32:05;4.72;;;2.33;;
82304;SDS011;71914;47.382;8.168;2024-03-17T02:34:35;3.20;;;2.30;;
82304;SDS011;71914;47.382;8.168;2024-03-17T02:37:01;2.95;;;2.13;;
82304;SDS011;71914;47.382;8.168;2024-03-17T02:39:28;3.60;;;2.28;;
82304;SDS011;71914;47.382;8.168;2024-03-17T02:42:03;2.65;;;2.42;;
82304;SDS011;71914;47.382;8.168;2024-03-17T02:44:30;3.28;;;2.15;;
82304;SDS011;71914;47.382;8.168;2024-03-17T02:46:59;3.60;;;2.30;;
82304;SDS011;71914;47.382;8.168;2024-03-17T02:49:26;5.30;;;2.45;;
82304;SDS011;71914;47.382;8.168;2024-03-17T02:51:55;2.58;;;1.98;;
82304;SDS011;71914;47.382;8.168;2024-03-17T02:54:21;3.08;;;2.15;;
82304;SDS011;71914;47.382;8.168;2024-03-17T03:03:31;5.35;;;2.30;;
82304;SDS011;71914;47.382;8.168;2024-03-17T03:06:00;4.43;;;2.67;;
82304;SDS011;71914;47.382;8.168;2024-03-17T03:08:40;10.73;;;4.38;;
82304;SDS011;71914;47.382;8.168;2024-03-17T03:11:07;4.47;;;2.83;;
82304;SDS011;71914;47.382;8.168;2024-03-17T03:13:36;3.15;;;2.28;;
82304;SDS011;71914;47.382;8.168;2024-03-17T03:16:04;4.53;;;2.60;;
82304;SDS011;71914;47.382;8.168;2024-03-17T03:18:31;7.28;;;4.13;;
82304;SDS011;71914;47.382;8.168;2024-03-17T03:20:56;8.93;;;3.40;;
82304;SDS011;71914;47.382;8.168;2024-03-17T03:23:22;3.58;;;2.30;;
82304;SDS011;71914;47.382;8.168;2024-03-17T03:25:47;4.35;;;2.42;;
82304;SDS011;71914;47.382;8.168;2024-03-17T03:28:13;4.00;;;2.72;;
82304;SDS011;71914;47.382;8.168;2024-03-17T03:30:38;3.30;;;2.47;;
82304;SDS011;71914;47.382;8.168;2024-03-17T03:33:04;4.25;;;2.75;;
82304;SDS011;71914;47.382;8.168;2024-03-17T03:35:31;3.75;;;2.55;;
82304;SDS011;71914;47.382;8.168;2024-03-17T03:37:56;5.78;;;2.42;;
82304;SDS011;71914;47.382;8.168;2024-03-17T03:40:22;3.03;;;2.13;;
82304;SDS011;71914;47.382;8.168;2024-03-17T03:42:47;4.70;;;2.28;;
82304;SDS011;71914;47.382;8.168;2024-03-17T03:45:13;2.85;;;2.15;;
82304;SDS011;71914;47.382;8.168;2024-03-17T03:47:42;6.97;;;2.30;;
82304;SDS011;71914;47.382;8.168;2024-03-17T03:50:08;2.67;;;2.08;;
82304;SDS011;71914;47.382;8.168;2024-03-17T03:52:37;5.85;;;2.40;;
82304;SDS011;71914;47.382;8.168;2024-03-17T03:55:03;3.25;;;2.75;;
82304;SDS011;71914;47.382;8.168;2024-03-17T03:57:30;3.95;;;2.15;;
82304;SDS011;71914;47.382;8.168;2024-03-17T03:59:57;3.60;;;2.80;;
82304;SDS011;71914;47.382;8.168;2024-03-17T04:02:22;4.88;;;3.17;;
82304;SDS011;71914;47.382;8.168;2024-03-17T04:04:48;9.77;;;3.58;;
82304;SDS011;71914;47.382;8.168;2024-03-17T04:07:13;5.05;;;3.20;;
82304;SDS011;71914;47.382;8.168;2024-03-17T04:09:39;4.47;;;2.67;;
82304;SDS011;71914;47.382;8.168;2024-03-17T04:12:04;4.55;;;3.13;;
82304;SDS011;71914;47.382;8.168;2024-03-17T04:14:30;3.90;;;2.72;;
82304;SDS011;71914;47.382;8.168;2024-03-17T04:16:56;2.83;;;1.98;;
82304;SDS011;71914;47.382;8.168;2024-03-17T04:19:21;3.28;;;2.60;;
82304;SDS011;71914;47.382;8.168;2024-03-17T04:21:47;3.13;;;2.30;;
82304;SDS011;71914;47.382;8.168;2024-03-17T04:24:13;3.60;;;3.00;;
82304;SDS011;71914;47.382;8.168;2024-03-17T04:26:38;4.03;;;2.67;;
82304;SDS011;71914;47.382;8.168;2024-03-17T04:29:03;5.03;;;2.78;;
82304;SDS011;71914;47.382;8.168;2024-03-17T04:31:30;7.03;;;3.30;;
82304;SDS011;71914;47.382;8.168;2024-03-17T04:33:56;3.65;;;2.50;;
82304;SDS011;71914;47.382;8.168;2024-03-17T04:36:22;4.15;;;2.40;;
82304;SDS011;71914;47.382;8.168;2024-03-17T04:38:47;5.03;;;2.55;;
82304;SDS011;71914;47.382;8.168;2024-03-17T04:41:16;4.05;;;2.15;;
82304;SDS011;71914;47.382;8.168;2024-03-17T04:43:42;4.70;;;2.90;;
82304;SDS011;71914;47.382;8.168;2024-03-17T04:46:07;3.97;;;2.30;;
82304;SDS011;71914;47.382;8.168;2024-03-17T04:48:36;3.55;;;2.28;;
82304;SDS011;71914;47.382;8.168;2024-03-17T04:51:03;3.67;;;1.98;;
82304;SDS011;71914;47.382;8.168;2024-03-17T04:53:28;4.78;;;2.70;;
82304;SDS011;71914;47.382;8.168;2024-03-17T04:55:58;4.72;;;2.70;;
82304;SDS011;71914;47.382;8.168;2024-03-17T04:58:24;3.08;;;2.38;;
82304;SDS011;71914;47.382;8.168;2024-03-17T05:00:50;3.58;;;2.35;;
82304;SDS011;71914;47.382;8.168;2024-03-17T05:03:15;3.53;;;2.13;;
82304;SDS011;71914;47.382;8.168;2024-03-17T05:05:41;5.40;;;3.40;;
82304;SDS011;71914;47.382;8.168;2024-03-17T05:08:06;4.03;;;2.58;;
82304;SDS011;71914;47.382;8.168;2024-03-17T05:10:31;4.20;;;2.67;;
82304;SDS011;71914;47.382;8.168;2024-03-17T05:12:57;4.82;;;2.70;;
82304;SDS011;71914;47.382;8.168;2024-03-17T05:15:22;4.88;;;2.67;;
82304;SDS011;71914;47.382;8.168;2024-03-17T05:17:47;3.17;;;2.45;;
82304;SDS011;71914;47.382;8.168;2024-03-17T05:20:13;3.45;;;2.13;;
82304;SDS011;71914;47.382;8.168;2024-03-17T05:22:38;4.22;;;2.90;;
82304;SDS011;71914;47.382;8.168;2024-03-17T05:25:04;4.15;;;2.55;;
82304;SDS011;71914;47.382;8.168;2024-03-17T05:27:30;5.28;;;2.70;;
82304;SDS011;71914;47.382;8.168;2024-03-17T05:29:55;4.68;;;2.75;;
82304;SDS011;71914;47.382;8.168;2024-03-17T05:32:21;6.50;;;2.85;;
82304;SDS011;71914;47.382;8.168;2024-03-17T05:34:46;4.40;;;2.58;;
82304;SDS011;71914;47.382;8.168;2024-03-17T05:37:12;3.00;;;2.38;;
82304;SDS011;71914;47.382;8.168;2024-03-17T05:39:37;7.82;;;3.22;;
82304;SDS011;71914;47.382;8.168;2024-03-17T05:42:03;8.18;;;2.72;;
82304;SDS011;71914;47.382;8.168;2024-03-17T05:44:29;4.03;;;2.90;;
82304;SDS011;71914;47.382;8.168;2024-03-17T05:46:58;6.13;;;3.25;;
82304;SDS011;71914;47.382;8.168;2024-03-17T05:49:24;8.93;;;2.95;;
82304;SDS011;71914;47.382;8.168;2024-03-17T05:51:50;5.03;;;3.05;;
82304;SDS011;71914;47.382;8.168;2024-03-17T05:54:15;8.63;;;3.75;;
82304;SDS011;71914;47.382;8.168;2024-03-17T05:56:41;5.95;;;2.78;;
82304;SDS011;71914;47.382;8.168;2024-03-17T05:59:06;8.13;;;3.33;;
82304;SDS011;71914;47.382;8.168;2024-03-17T06:01:32;6.45;;;2.75;;
82304;SDS011;71914;47.382;8.168;2024-03-17T06:03:57;10.35;;;4.20;;
82304;SDS011;71914;47.382;8.168;2024-03-17T06:06:22;6.28;;;3.88;;
82304;SDS011;71914;47.382;8.168;2024-03-17T06:08:48;8.10;;;3.83;;
82304;SDS011;71914;47.382;8.168;2024-03-17T06:11:14;7.30;;;3.65;;
82304;SDS011;71914;47.382;8.168;2024-03-17T06:13:39;11.75;;;4.03;;
82304;SDS011;71914;47.382;8.168;2024-03-17T06:16:05;16.15;;;3.78;;
82304;SDS011;71914;47.382;8.168;2024-03-17T06:18:30;19.48;;;3.33;;
82304;SDS011;71914;47.382;8.168;2024-03-17T06:20:56;16.38;;;3.20;;
82304;SDS011;71914;47.382;8.168;2024-03-17T06:23:24;8.18;;;3.53;;
82304;SDS011;71914;47.382;8.168;2024-03-17T06:25:52;13.52;;;4.25;;
82304;SDS011;71914;47.382;8.168;2024-03-17T06:28:19;16.73;;;6.40;;
82304;SDS011;71914;47.382;8.168;2024-03-17T06:30:45;21.67;;;5.35;;
82304;SDS011;71914;47.382;8.168;2024-03-17T06:33:18;22.88;;;5.53;;
82304;SDS011;71914;47.382;8.168;2024-03-17T06:35:44;60.05;;;8.57;;
82304;SDS011;71914;47.382;8.168;2024-03-17T06:38:11;19.95;;;5.30;;
82304;SDS011;71914;47.382;8.168;2024-03-17T06:40:37;20.63;;;4.88;;
82304;SDS011;71914;47.382;8.168;2024-03-17T06:43:03;29.08;;;6.00;;
82304;SDS011;71914;47.382;8.168;2024-03-17T06:45:29;13.90;;;5.70;;
82304;SDS011;71914;47.382;8.168;2024-03-17T06:47:54;20.35;;;6.97;;
82304;SDS011;71914;47.382;8.168;2024-03-17T06:50:20;24.15;;;7.15;;
82304;SDS011;71914;47.382;8.168;2024-03-17T06:52:46;10.23;;;5.63;;
82304;SDS011;71914;47.382;8.168;2024-03-17T06:55:11;15.57;;;5.70;;
82304;SDS011;71914;47.382;8.168;2024-03-17T06:57:37;11.48;;;5.63;;
82304;SDS011;71914;47.382;8.168;2024-03-17T07:00:03;49.38;;;9.32;;
82304;SDS011;71914;47.382;8.168;2024-03-17T07:02:30;18.23;;;6.45;;
82304;SDS011;71914;47.382;8.168;2024-03-17T07:04:57;22.95;;;6.82;;
82304;SDS011;71914;47.382;8.168;2024-03-17T07:07:23;19.25;;;7.38;;
82304;SDS011;71914;47.382;8.168;2024-03-17T07:09:48;12.68;;;7.15;;
82304;SDS011;71914;47.382;8.168;2024-03-17T07:12:13;29.02;;;9.15;;
82304;SDS011;71914;47.382;8.168;2024-03-17T07:14:39;22.17;;;6.53;;
82304;SDS011;71914;47.382;8.168;2024-03-17T07:17:04;10.38;;;5.38;;
82304;SDS011;71914;47.382;8.168;2024-03-17T07:19:30;12.27;;;5.93;;
82304;SDS011;71914;47.382;8.168;2024-03-17T07:21:59;15.82;;;6.68;;
82304;SDS011;71914;47.382;8.168;2024-03-17T07:24:24;12.38;;;6.70;;
82304;SDS011;71914;47.382;8.168;2024-03-17T07:26:50;17.67;;;7.57;;
82304;SDS011;71914;47.382;8.168;2024-03-17T07:29:16;21.67;;;10.88;;
82304;SDS011;71914;47.382;8.168;2024-03-17T07:31:41;21.27;;;7.70;;
82304;SDS011;71914;47.382;8.168;2024-03-17T07:34:07;18.35;;;8.02;;
82304;SDS011;71914;47.382;8.168;2024-03-17T07:36:32;18.77;;;7.15;;
82304;SDS011;71914;47.382;8.168;2024-03-17T07:38:58;12.35;;;4.80;;
82304;SDS011;71914;47.382;8.168;2024-03-17T07:41:23;15.00;;;4.97;;
82304;SDS011;71914;47.382;8.168;2024-03-17T07:43:49;11.20;;;5.32;;
82304;SDS011;71914;47.382;8.168;2024-03-17T07:46:14;33.15;;;8.68;;
82304;SDS011;71914;47.382;8.168;2024-03-17T07:48:40;15.48;;;6.10;;
82304;SDS011;71914;47.382;8.168;2024-03-17T07:51:08;15.32;;;7.20;;
82304;SDS011;71914;47.382;8.168;2024-03-17T07:53:36;20.27;;;8.00;;
82304;SDS011;71914;47.382;8.168;2024-03-17T07:56:07;28.08;;;7.35;;
82304;SDS011;71914;47.382;8.168;2024-03-17T07:58:37;12.60;;;5.47;;
82304;SDS011;71914;47.382;8.168;2024-03-17T08:01:22;24.70;;;6.20;;
82304;SDS011;71914;47.382;8.168;2024-03-17T08:03:47;9.98;;;5.18;;
82304;SDS011;71914;47.382;8.168;2024-03-17T08:06:20;13.73;;;5.07;;
82304;SDS011;71914;47.382;8.168;2024-03-17T08:08:46;10.32;;;6.47;;
82304;SDS011;71914;47.382;8.168;2024-03-17T08:11:12;6.72;;;4.15;;
82304;SDS011;71914;47.382;8.168;2024-03-17T08:13:38;8.45;;;4.35;;
82304;SDS011;71914;47.382;8.168;2024-03-17T08:16:05;8.57;;;4.97;;
82304;SDS011;71914;47.382;8.168;2024-03-17T08:18:32;10.15;;;6.07;;
82304;SDS011;71914;47.382;8.168;2024-03-17T08:20:59;11.35;;;6.90;;
82304;SDS011;71914;47.382;8.168;2024-03-17T08:23:25;8.45;;;5.65;;
82304;SDS011;71914;47.382;8.168;2024-03-17T08:28:23;9.38;;;5.80;;
82304;SDS011;71914;47.382;8.168;2024-03-17T08:30:50;11.80;;;5.47;;
82304;SDS011;71914;47.382;8.168;2024-03-17T08:33:17;9.63;;;4.95;;
82304;SDS011;71914;47.382;8.168;2024-03-17T08:35:42;6.80;;;4.82;;
82304;SDS011;71914;47.382;8.168;2024-03-17T08:38:20;6.65;;;3.95;;
82304;SDS011;71914;47.382;8.168;2024-03-17T08:40:48;6.82;;;4.25;;
82304;SDS011;71914;47.382;8.168;2024-03-17T08:43:14;6.90;;;4.57;;
82304;SDS011;71914;47.382;8.168;2024-03-17T08:45:40;5.18;;;4.05;;
82304;SDS011;71914;47.382;8.168;2024-03-17T08:48:05;4.82;;;3.72;;
82304;SDS011;71914;47.382;8.168;2024-03-17T08:50:31;7.05;;;4.32;;
82304;SDS011;71914;47.382;8.168;2024-03-17T08:52:59;6.65;;;4.53;;
82304;SDS011;71914;47.382;8.168;2024-03-17T08:55:24;6.97;;;4.10;;
82304;SDS011;71914;47.382;8.168;2024-03-17T08:57:50;5.68;;;3.63;;
82304;SDS011;71914;47.382;8.168;2024-03-17T09:00:15;7.15;;;4.00;;
82304;SDS011;71914;47.382;8.168;2024-03-17T09:02:41;6.30;;;4.85;;
82304;SDS011;71914;47.382;8.168;2024-03-17T09:05:06;7.40;;;5.05;;
82304;SDS011;71914;47.382;8.168;2024-03-17T09:07:32;7.28;;;4.95;;
82304;SDS011;71914;47.382;8.168;2024-03-17T09:09:58;7.70;;;4.97;;
82304;SDS011;71914;47.382;8.168;2024-03-17T09:12:24;6.55;;;4.82;;
82304;SDS011;71914;47.382;8.168;2024-03-17T09:14:49;6.05;;;4.30;;
82304;SDS011;71914;47.382;8.168;2024-03-17T09:17:15;5.95;;;4.10;;
82304;SDS011;71914;47.382;8.168;2024-03-17T09:19:40;5.85;;;3.60;;
82304;SDS011;71914;47.382;8.168;2024-03-17T09:22:06;6.30;;;3.50;;
82304;SDS011;71914;47.382;8.168;2024-03-17T09:24:31;6.15;;;3.95;;
82304;SDS011;71914;47.382;8.168;2024-03-17T09:26:57;4.80;;;3.63;;
82304;SDS011;71914;47.382;8.168;2024-03-17T09:29:22;5.22;;;3.70;;
82304;SDS011;71914;47.382;8.168;2024-03-17T09:31:49;6.22;;;3.10;;
82304;SDS011;71914;47.382;8.168;2024-03-17T09:34:14;4.65;;;3.70;;
82304;SDS011;71914;47.382;8.168;2024-03-17T09:36:40;8.02;;;3.90;;
82304;SDS011;71914;47.382;8.168;2024-03-17T09:39:05;5.95;;;2.97;;
82304;SDS011;71914;47.382;8.168;2024-03-17T09:41:31;5.55;;;3.85;;
82304;SDS011;71914;47.382;8.168;2024-03-17T09:43:57;8.38;;;4.40;;
82304;SDS011;71914;47.382;8.168;2024-03-17T09:46:23;6.82;;;4.03;;
82304;SDS011;71914;47.382;8.168;2024-03-17T09:48:51;7.85;;;4.35;;
82304;SDS011;71914;47.382;8.168;2024-03-17T09:51:20;5.20;;;4.05;;
82304;SDS011;71914;47.382;8.168;2024-03-17T09:53:47;6.47;;;4.45;;
82304;SDS011;71914;47.382;8.168;2024-03-17T09:56:14;8.52;;;4.63;;
82304;SDS011;71914;47.382;8.168;2024-03-17T09:58:41;5.72;;;3.10;;
82304;SDS011;71914;47.382;8.168;2024-03-17T10:01:07;9.00;;;4.63;;
82304;SDS011;71914;47.382;8.168;2024-03-17T10:03:39;6.30;;;3.83;;
82304;SDS011;71914;47.382;8.168;2024-03-17T10:06:15;4.47;;;3.60;;
82304;SDS011;71914;47.382;8.168;2024-03-17T10:11:06;4.10;;;3.17;;
82304;SDS011;71914;47.382;8.168;2024-03-17T10:13:32;5.50;;;3.78;;
82304;SDS011;71914;47.382;8.168;2024-03-17T10:15:57;4.82;;;3.90;;
82304;SDS011;71914;47.382;8.168;2024-03-17T10:18:23;4.20;;;3.80;;
82304;SDS011;71914;47.382;8.168;2024-03-17T10:20:49;7.15;;;4.15;;
82304;SDS011;71914;47.382;8.168;2024-03-17T10:23:21;6.88;;;4.40;;
82304;SDS011;71914;47.382;8.168;2024-03-17T10:25:48;7.55;;;3.75;;
82304;SDS011;71914;47.382;8.168;2024-03-17T10:28:15;6.97;;;3.28;;
82304;SDS011;71914;47.382;8.168;2024-03-17T10:30:42;9.00;;;3.45;;
82304;SDS011;71914;47.382;8.168;2024-03-17T10:33:24;5.80;;;3.40;;
82304;SDS011;71914;47.382;8.168;2024-03-17T10:35:50;7.65;;;3.42;;
82304;SDS011;71914;47.382;8.168;2024-03-17T10:38:25;3.22;;;2.67;;
82304;SDS011;71914;47.382;8.168;2024-03-17T10:40:50;6.15;;;2.80;;
82304;SDS011;71914;47.382;8.168;2024-03-17T10:43:16;3.97;;;2.45;;
82304;SDS011;71914;47.382;8.168;2024-03-17T10:45:41;5.80;;;2.83;;
82304;SDS011;71914;47.382;8.168;2024-03-17T10:48:08;6.18;;;3.15;;
82304;SDS011;71914;47.382;8.168;2024-03-17T10:50:38;5.10;;;2.58;;
82304;SDS011;71914;47.382;8.168;2024-03-17T10:53:06;3.30;;;2.53;;
82304;SDS011;71914;47.382;8.168;2024-03-17T10:55:45;4.68;;;2.40;;
82304;SDS011;71914;47.382;8.168;2024-03-17T10:58:28;4.55;;;2.22;;
82304;SDS011;71914;47.382;8.168;2024-03-17T11:01:01;2.75;;;2.10;;
82304;SDS011;71914;47.382;8.168;2024-03-17T11:03:28;3.95;;;2.05;;
82304;SDS011;71914;47.382;8.168;2024-03-17T11:06:00;3.38;;;1.70;;
82304;SDS011;71914;47.382;8.168;2024-03-17T11:08:28;5.15;;;2.20;;
82304;SDS011;71914;47.382;8.168;2024-03-17T11:10:56;4.07;;;2.28;;
82304;SDS011;71914;47.382;8.168;2024-03-17T11:13:22;5.22;;;2.25;;
82304;SDS011;71914;47.382;8.168;2024-03-17T11:15:55;4.15;;;2.03;;
82304;SDS011;71914;47.382;8.168;2024-03-17T11:20:56;3.70;;;2.10;;
82304;SDS011;71914;47.382;8.168;2024-03-17T11:23:41;4.93;;;2.10;;
82304;SDS011;71914;47.382;8.168;2024-03-17T11:26:07;4.60;;;2.00;;
82304;SDS011;71914;47.382;8.168;2024-03-17T11:33:57;6.05;;;3.50;;
82304;SDS011;71914;47.382;8.168;2024-03-17T11:38:57;5.88;;;2.92;;
82304;SDS011;71914;47.382;8.168;2024-03-17T11:46:59;3.13;;;1.70;;
82304;SDS011;71914;47.382;8.168;2024-03-17T11:49:29;3.22;;;2.28;;
82304;SDS011;71914;47.382;8.168;2024-03-17T11:52:11;2.13;;;1.40;;
82304;SDS011;71914;47.382;8.168;2024-03-17T11:54:44;4.15;;;1.90;;
82304;SDS011;71914;47.382;8.168;2024-03-17T11:57:11;2.72;;;2.00;;
82304;SDS011;71914;47.382;8.168;2024-03-17T11:59:38;3.72;;;2.20;;
82304;SDS011;71914;47.382;8.168;2024-03-17T12:04:45;3.03;;;1.42;;
82304;SDS011;71914;47.382;8.168;2024-03-17T12:07:12;2.35;;;1.38;;
82304;SDS011;71914;47.382;8.168;2024-03-17T12:09:40;2.95;;;1.27;;
82304;SDS011;71914;47.382;8.168;2024-03-17T12:12:11;4.93;;;1.55;;
82304;SDS011;71914;47.382;8.168;2024-03-17T12:14:41;2.60;;;1.30;;
82304;SDS011;71914;47.382;8.168;2024-03-17T12:17:07;2.05;;;1.30;;
82304;SDS011;71914;47.382;8.168;2024-03-17T12:19:34;4.18;;;1.58;;
82304;SDS011;71914;47.382;8.168;2024-03-17T12:22:01;1.25;;;0.90;;
82304;SDS011;71914;47.382;8.168;2024-03-17T12:24:28;3.42;;;1.48;;
82304;SDS011;71914;47.382;8.168;2024-03-17T12:26:55;4.18;;;1.38;;
82304;SDS011;71914;47.382;8.168;2024-03-17T12:32:01;5.35;;;1.63;;
82304;SDS011;71914;47.382;8.168;2024-03-17T12:34:35;4.93;;;1.83;;
82304;SDS011;71914;47.382;8.168;2024-03-17T12:37:01;5.53;;;1.52;;
82304;SDS011;71914;47.382;8.168;2024-03-17T12:39:27;1.85;;;1.58;;
82304;SDS011;71914;47.382;8.168;2024-03-17T12:42:13;3.00;;;1.58;;
82304;SDS011;71914;47.382;8.168;2024-03-17T12:44:40;3.63;;;2.13;;
82304;SDS011;71914;47.382;8.168;2024-03-17T12:47:19;3.38;;;1.88;;
82304;SDS011;71914;47.382;8.168;2024-03-17T12:49:48;6.72;;;1.52;;
82304;SDS011;71914;47.382;8.168;2024-03-17T12:52:19;4.47;;;1.33;;
82304;SDS011;71914;47.382;8.168;2024-03-17T12:57:50;4.75;;;1.55;;
82304;SDS011;71914;47.382;8.168;2024-03-17T13:00:35;3.85;;;1.92;;
82304;SDS011;71914;47.382;8.168;2024-03-17T13:03:01;3.85;;;2.50;;
82304;SDS011;71914;47.382;8.168;2024-03-17T13:05:28;4.68;;;2.03;;
82304;SDS011;71914;47.382;8.168;2024-03-17T13:07:54;4.72;;;1.75;;
82304;SDS011;71914;47.382;8.168;2024-03-17T13:10:21;3.85;;;2.05;;
82304;SDS011;71914;47.382;8.168;2024-03-17T13:12:47;2.55;;;1.88;;
82304;SDS011;71914;47.382;8.168;2024-03-17T13:15:14;5.97;;;2.55;;
82304;SDS011;71914;47.382;8.168;2024-03-17T13:17:42;2.50;;;2.10;;
82304;SDS011;71914;47.382;8.168;2024-03-17T13:20:08;5.45;;;2.95;;
82304;SDS011;71914;47.382;8.168;2024-03-17T13:22:38;4.30;;;2.97;;
82304;SDS011;71914;47.382;8.168;2024-03-17T13:25:05;6.55;;;3.33;;
82304;SDS011;71914;47.382;8.168;2024-03-17T13:27:33;4.38;;;3.75;;
82304;SDS011;71914;47.382;8.168;2024-03-17T13:29:59;5.47;;;3.92;;
82304;SDS011;71914;47.382;8.168;2024-03-17T13:32:25;4.75;;;3.08;;
82304;SDS011;71914;47.382;8.168;2024-03-17T13:34:51;6.55;;;4.57;;
82304;SDS011;71914;47.382;8.168;2024-03-17T13:37:16;17.52;;;9.90;;
82304;SDS011;71914;47.382;8.168;2024-03-17T13:39:42;8.95;;;4.53;;
82304;SDS011;71914;47.382;8.168;2024-03-17T13:42:07;6.10;;;3.63;;
82304;SDS011;71914;47.382;8.168;2024-03-17T13:44:33;6.00;;;3.63;;
82304;SDS011;71914;47.382;8.168;2024-03-17T13:46:59;5.82;;;4.13;;
82304;SDS011;71914;47.382;8.168;2024-03-17T13:49:26;5.25;;;3.92;;
82304;SDS011;71914;47.382;8.168;2024-03-17T13:51:53;5.93;;;4.07;;
82304;SDS011;71914;47.382;8.168;2024-03-17T13:54:19;5.50;;;3.72;;
82304;SDS011;71914;47.382;8.168;2024-03-17T13:56:47;7.60;;;5.13;;
82304;SDS011;71914;47.382;8.168;2024-03-17T13:59:13;7.78;;;4.20;;
82304;SDS011;71914;47.382;8.168;2024-03-17T14:01:39;5.22;;;3.78;;
82304;SDS011;71914;47.382;8.168;2024-03-17T14:04:07;6.35;;;4.07;;
82304;SDS011;71914;47.382;8.168;2024-03-17T14:06:37;6.78;;;4.20;;
82304;SDS011;71914;47.382;8.168;2024-03-17T14:09:03;4.30;;;3.22;;
82304;SDS011;71914;47.382;8.168;2024-03-17T14:11:28;4.38;;;3.17;;
82304;SDS011;71914;47.382;8.168;2024-03-17T14:13:54;5.50;;;2.70;;
82304;SDS011;71914;47.382;8.168;2024-03-17T14:16:19;5.32;;;4.00;;
82304;SDS011;71914;47.382;8.168;2024-03-17T14:18:45;5.40;;;3.47;;
82304;SDS011;71914;47.382;8.168;2024-03-17T14:21:10;5.57;;;4.43;;
82304;SDS011;71914;47.382;8.168;2024-03-17T14:23:35;5.55;;;3.33;;
82304;SDS011;71914;47.382;8.168;2024-03-17T14:26:02;6.28;;;3.38;;
82304;SDS011;71914;47.382;8.168;2024-03-17T14:28:29;4.28;;;2.88;;
82304;SDS011;71914;47.382;8.168;2024-03-17T14:30:55;5.28;;;3.00;;
82304;SDS011;71914;47.382;8.168;2024-03-17T14:33:20;6.35;;;3.42;;
82304;SDS011;71914;47.382;8.168;2024-03-17T14:35:45;5.97;;;3.13;;
82304;SDS011;71914;47.382;8.168;2024-03-17T14:38:11;4.43;;;2.88;;
82304;SDS011;71914;47.382;8.168;2024-03-17T14:40:39;5.40;;;3.20;;
82304;SDS011;71914;47.382;8.168;2024-03-17T14:43:05;7.13;;;3.05;;
82304;SDS011;71914;47.382;8.168;2024-03-17T14:45:31;5.47;;;2.47;;
82304;SDS011;71914;47.382;8.168;2024-03-17T14:47:56;3.70;;;2.00;;
82304;SDS011;71914;47.382;8.168;2024-03-17T14:50:22;5.68;;;2.10;;
82304;SDS011;71914;47.382;8.168;2024-03-17T14:52:48;4.53;;;2.35;;
82304;SDS011;71914;47.382;8.168;2024-03-17T14:55:14;4.57;;;2.15;;
82304;SDS011;71914;47.382;8.168;2024-03-17T14:57:39;4.20;;;2.15;;
82304;SDS011;71914;47.382;8.168;2024-03-17T15:00:07;7.45;;;2.38;;
82304;SDS011;71914;47.382;8.168;2024-03-17T15:02:41;6.45;;;2.08;;
82304;SDS011;71914;47.382;8.168;2024-03-17T15:05:10;4.88;;;2.22;;
82304;SDS011;71914;47.382;8.168;2024-03-17T15:07:36;4.13;;;2.10;;
82304;SDS011;71914;47.382;8.168;2024-03-17T15:10:02;5.57;;;2.30;;
82304;SDS011;71914;47.382;8.168;2024-03-17T15:12:28;3.38;;;2.90;;
82304;SDS011;71914;47.382;8.168;2024-03-17T15:14:54;3.33;;;1.80;;
82304;SDS011;71914;47.382;8.168;2024-03-17T15:17:20;5.20;;;2.42;;
82304;SDS011;71914;47.382;8.168;2024-03-17T15:19:48;5.60;;;2.63;;